Airfield :
LOGIN :

Register | Disclaimer

   EN    FR    IT 

 










Legend :    VFR   Marginal VFR   IFR   Intensive IFR   Very Intensive IFR
Visi :
Ceiling :
>= 8 km
>= 3000ft
5 to 8 km
1000 to 3000 ft
1500m to 5 km
500 to 1000 ft
800 to 1500m
200 to 500 ft
< 800m
< 200 ft
Symbols :   Thunderstorms  Fog  Heavy snow  Heavy precipitations  Wind > 20 kt
SIGMETs :     Misc.  Thunderstorms  Icing  Turbulence  Mountain Waves  Volcanic Ashes







- Airport Elevation : 257 ft
- IATA code : MAN
- Download approach charts


EGCC - Manchester

CURRENT METAR :
  • 251320Z AUTO 15008KT 090V210 9999 FEW037/// //////TCU 13/06 Q0996

EXPIRED METARs :
  • 251250Z 15008KT 110V230 9999 FEW035 14/06 Q0996 TEMPO SHRA
  • 251220Z AUTO VRB06KT 9999 NCD 13/06 Q0996
  • 251150Z AUTO 14006KT 100V200 9999 SCT033/// //////TCU 13/06 Q0996
  • 251120Z AUTO 15006KT 080V190 9999 SCT034 14/06 Q0996 TEMPO SHRA
  • 251050Z AUTO 14007KT 090V200 9999 SCT031 14/07 Q0996 TEMPO SHRA

TAF TAF EGCC
Valid from the 25 at 12:00 until the 26 at 18:00 UTC


251056Z 2512/2618 16009KT 9999 SCT030
TEMPO 2512/2521 7000 SHRA
PROB30
TEMPO 2512/2519 19018G28KT 4000 +SHRA TSGS BKN014 BKN030CB
BECMG 2610/2613 22010KT 8000 -RA
TEMPO 2610/2616 22015G25KT RA BKN014
BECMG 2614/2617 9999 NSW
ATIS : +44 161 499 2324
No reported NOTAMs for that airfield.



MET'MAP, your aeronautical weather chart ! - Copyright ORBIFLY December 2007 - Disclaimer

ORBIFLY MET'MAP TEAM :

Programming & Development : Alexandra Zaïnal
Concept & Development : Baudouin d'Aumeries
Co-Development & Prog : Marc-Olivier Méhu
Technical & hardware support : Manuel Goepfert

Contact : metmap@orbifly.com




SOURCES & CREDITS :

   NOAA